Terminal Aerodrome Forecast
Issued by NWS Wichita, KS

Home | Current Version | Previous Version | Text Only | Print | Product List | Glossary Off
Versions: 1 2 3 4 5 6 7 8 9 10 11 12 13 14 15 16 17

000
FTUS43 KICT 241120
TAFICT
TAF
KICT 241120Z 2412/2512 29010KT P6SM SKC
     FM241900 26015G22KT P6SM SKC
     FM250000 26011KT P6SM BKN100
     FM250600 30011KT P6SM BKN100=

USA.gov is the U.S. government's official web portal to all federal, state and local government web resources and services.